Time;durP1;ratioP1;P1;durP2;ratioP2;P2;SDS_P1;SDS_P2;PMS_P1;PMS_P2;Temp;Humidity;BMP_temperature;BMP_pressure;BME280_temperature;BME280_humidity;BME280_pressure;Samples;Min_cycle;Max_cycle;Signal;HPM_P1;HPM_P2
2024/01/10 00:01:07;;;;;;;;;;;;;;;-0.56;52.24;100411.94;109526;1252;67736;-61
2024/01/10 00:03:35;;;;;;;;;;;;;;;-0.49;52.21;100412.48;109524;1252;72709;-61
2024/01/10 00:06:02;;;;;;;;;;;;;;;-0.43;52.51;100409.41;109528;1252;60447;-63
2024/01/10 00:08:31;;;;;;;;;;;;;;;-0.67;53.34;100409.87;109111;1252;59698;-63
2024/01/10 00:10:59;;;;;;;;;;;;;;;-0.53;53.37;100412.34;109633;1252;75476;-63
2024/01/10 00:13:27;;;;;;;;;;;;;;;-0.34;53.04;100414.54;109150;1252;67580;-61
2024/01/10 00:15:55;;;;;;;;;;;;;;;-0.58;54.04;100412.16;109347;1253;72698;-63
2024/01/10 00:18:23;;;;;;;;;;;;;;;-0.52;54.24;100405.76;109591;1253;61735;-62
2024/01/10 00:20:54;;;;;;;;;;;;;;;-0.53;54.53;100400.95;109481;1252;59895;-61
2024/01/10 00:23:21;;;;;;;;;;;;;;;-0.59;55.16;100410.18;109603;1253;75504;-61
2024/01/10 00:25:49;;;;;;;;;;;;;;;-0.44;55.18;100408.91;109611;1252;68562;-63
2024/01/10 00:28:17;;;;;;;;;;;;;;;-0.41;55.04;100398.95;109467;1253;72700;-61
2024/01/10 00:30:47;;;;;;;;;;;;;;;-0.34;55.10;100390.14;109507;1252;60504;-64
2024/01/10 00:33:15;;;;;;;;;;;;;;;-0.41;55.63;100387.58;109597;1252;59950;-61
2024/01/10 00:35:42;;;;;;;;;;;;;;;-0.26;55.12;100387.80;109591;1252;74532;-64
2024/01/10 00:38:10;;;;;;;;;;;;;;;-0.47;55.83;100380.25;109426;1252;68503;-61
2024/01/10 00:40:37;;;;;;;;;;;;;;;-0.49;56.29;100370.10;109599;1252;72670;-61
2024/01/10 00:43:05;;;;;;;;;;;;;;;-0.47;56.41;100364.89;109612;1252;61779;-61
2024/01/10 00:45:32;;;;;;;;;;;;;;;-0.48;56.56;100360.23;109625;1253;59797;-64
2024/01/10 00:48:00;;;;;;;;;;;;;;;-0.25;55.89;100357.34;109529;1252;75670;-64
2024/01/10 00:50:27;;;;;;;;;;;;;;;-0.34;56.20;100360.23;109538;1251;67567;-61
2024/01/10 00:52:55;;;;;;;;;;;;;;;-0.33;56.54;100369.63;109509;1252;71789;-61
2024/01/10 00:55:22;;;;;;;;;;;;;;;-0.53;57.17;100368.88;109161;1252;60451;-61
2024/01/10 00:57:50;;;;;;;;;;;;;;;-0.57;57.86;100364.58;109516;1252;59848;-63
2024/01/10 01:00:17;;;;;;;;;;;;;;;-0.60;58.32;100354.73;109467;1253;75546;-62
2024/01/10 01:02:45;;;;;;;;;;;;;;;-0.53;58.12;100342.86;109535;1252;68572;-64
2024/01/10 01:05:12;;;;;;;;;;;;;;;-0.97;59.75;100336.23;109505;1252;71422;-62
2024/01/10 01:07:40;;;;;;;;;;;;;;;-0.59;58.72;100340.14;109397;1254;61719;-62
2024/01/10 01:10:08;;;;;;;;;;;;;;;-0.45;58.22;100339.55;109154;1253;59894;-62
2024/01/10 01:12:36;;;;;;;;;;;;;;;-0.29;57.78;100342.63;109379;1252;75333;-64
2024/01/10 01:15:04;;;;;;;;;;;;;;;-0.38;57.94;100334.56;109463;1252;68501;-64
2024/01/10 01:17:31;;;;;;;;;;;;;;;-0.64;58.98;100325.96;109419;1253;71450;-61
2024/01/10 01:19:59;;;;;;;;;;;;;;;-0.57;58.84;100326.60;109431;1253;60466;-65
2024/01/10 01:22:27;;;;;;;;;;;;;;;-0.63;59.19;100321.25;109437;1253;59943;-63
2024/01/10 01:24:54;;;;;;;;;;;;;;;-0.54;59.19;100322.05;109444;1253;73571;-63
2024/01/10 01:27:21;;;;;;;;;;;;;;;-0.67;59.45;100321.33;109472;1253;67266;-62
2024/01/10 01:29:49;;;;;;;;;;;;;;;-0.71;59.70;100311.55;109444;1253;72705;-63
2024/01/10 01:32:16;;;;;;;;;;;;;;;-0.58;59.55;100307.58;109427;1252;60484;-64
2024/01/10 01:34:44;;;;;;;;;;;;;;;-0.54;59.50;100298.49;109460;1252;59887;-65
2024/01/10 01:37:11;;;;;;;;;;;;;;;-0.58;59.58;100291.34;109473;1253;74266;-62
2024/01/10 01:39:39;;;;;;;;;;;;;;;-0.27;58.72;100292.21;109482;1252;68923;-61
2024/01/10 01:42:06;;;;;;;;;;;;;;;-0.66;59.72;100289.20;109436;1253;71440;-63
2024/01/10 01:44:33;;;;;;;;;;;;;;;-0.90;60.88;100290.52;109440;1252;61701;-61
2024/01/10 01:47:01;;;;;;;;;;;;;;;-0.63;60.51;100287.66;109428;1253;59724;-60
2024/01/10 01:49:29;;;;;;;;;;;;;;;-0.26;59.15;100289.66;109580;1253;75516;-61
2024/01/10 01:51:56;;;;;;;;;;;;;;;-0.32;59.06;100274.69;109633;1251;68638;-63
2024/01/10 01:54:24;;;;;;;;;;;;;;;-0.57;59.73;100271.91;109638;1253;72745;-61
2024/01/10 01:56:51;;;;;;;;;;;;;;;-0.52;59.82;100272.77;109634;1253;60618;-60
2024/01/10 01:59:19;;;;;;;;;;;;;;;-0.53;59.95;100265.88;109615;1253;59819;-61
2024/01/10 02:01:46;;;;;;;;;;;;;;;-0.55;60.04;100268.89;109612;1251;74336;-60
2024/01/10 02:04:14;;;;;;;;;;;;;;;-0.63;60.15;100270.05;109539;1253;68956;-60
2024/01/10 02:06:42;;;;;;;;;;;;;;;-0.39;59.49;100272.51;109540;1251;72735;-60
2024/01/10 02:09:09;;;;;;;;;;;;;;;-0.24;58.82;100271.20;109574;1253;60902;-62
2024/01/10 02:11:36;;;;;;;;;;;;;;;-0.35;59.14;100272.42;109554;1252;59878;-61
2024/01/10 02:14:04;;;;;;;;;;;;;;;-0.77;60.55;100260.30;109631;1251;74235;-61
2024/01/10 02:16:31;;;;;;;;;;;;;;;-0.54;60.17;100271.66;109470;1251;67293;-62
2024/01/10 02:19:00;;;;;;;;;;;;;;;-0.51;59.71;100268.33;109652;1251;72713;-61
2024/01/10 02:21:27;;;;;;;;;;;;;;;-0.50;59.86;100275.94;109612;1251;60499;-61
2024/01/10 02:23:55;;;;;;;;;;;;;;;-0.56;60.39;100270.52;109603;1252;59934;-61
2024/01/10 02:26:22;;;;;;;;;;;;;;;-0.60;60.35;100266.05;109616;1253;74257;-61
2024/01/10 02:28:50;;;;;;;;;;;;;;;-0.73;61.04;100262.30;109632;1251;67330;-61
2024/01/10 02:31:18;;;;;;;;;;;;;;;-0.58;60.90;100253.98;109624;1251;72784;-61
2024/01/10 02:33:45;;;;;;;;;;;;;;;-0.27;59.56;100248.77;109603;1251;60418;-61
2024/01/10 02:36:13;;;;;;;;;;;;;;;-0.44;60.24;100241.02;109560;1251;59837;-62
2024/01/10 02:38:40;;;;;;;;;;;;;;;-0.35;59.81;100235.98;109584;1251;75523;-62
2024/01/10 02:41:07;;;;;;;;;;;;;;;-0.42;60.29;100238.65;109604;1251;66426;-62
2024/01/10 02:43:35;;;;;;;;;;;;;;;-0.57;61.02;100234.50;109573;1251;70742;-61
2024/01/10 02:46:03;;;;;;;;;;;;;;;-0.50;61.11;100226.16;109610;1252;60473;-60
2024/01/10 02:48:30;;;;;;;;;;;;;;;-0.28;60.39;100223.64;109581;1252;59715;-61
2024/01/10 02:50:57;;;;;;;;;;;;;;;-0.20;60.10;100222.95;109481;1252;75531;-61
2024/01/10 02:53:25;;;;;;;;;;;;;;;-0.14;60.14;100218.61;109456;1253;68796;-64
2024/01/10 02:55:52;;;;;;;;;;;;;;;-0.21;60.27;100213.51;109525;1252;73355;-61
2024/01/10 02:58:21;;;;;;;;;;;;;;;-0.24;60.66;100217.52;109534;1252;60473;-60
2024/01/10 03:00:48;;;;;;;;;;;;;;;-0.08;60.19;100212.45;109557;1252;59909;-62
2024/01/10 03:03:16;;;;;;;;;;;;;;;-0.12;60.71;100216.63;109426;1254;75527;-60
2024/01/10 03:05:44;;;;;;;;;;;;;;;-0.13;60.99;100212.66;109325;1253;68850;-61
2024/01/10 03:08:11;;;;;;;;;;;;;;;-0.28;61.87;100209.91;109291;1253;72719;-61
2024/01/10 03:10:39;;;;;;;;;;;;;;;-0.23;62.08;100200.35;109355;1254;61724;-61
2024/01/10 03:13:06;;;;;;;;;;;;;;;-0.19;62.10;100190.31;109446;1254;59742;-60
2024/01/10 03:15:34;;;;;;;;;;;;;;;-0.32;62.95;100191.30;109447;1253;75552;-61
2024/01/10 03:18:01;;;;;;;;;;;;;;;-0.11;62.63;100185.65;109380;1254;69277;-61
2024/01/10 03:20:29;;;;;;;;;;;;;;;-0.13;62.88;100180.97;109390;1254;71433;-60
2024/01/10 03:22:56;;;;;;;;;;;;;;;0.07;62.37;100178.14;109381;1254;61811;-61
2024/01/10 03:25:24;;;;;;;;;;;;;;;-0.21;63.81;100182.01;109355;1253;59691;-61
2024/01/10 03:27:51;;;;;;;;;;;;;;;-0.28;64.44;100178.10;109171;1258;75495;-61
2024/01/10 03:30:19;;;;;;;;;;;;;;;-0.08;64.37;100175.55;109185;1254;68723;-61
2024/01/10 03:32:47;;;;;;;;;;;;;;;0.16;63.41;100177.91;109433;1254;70997;-60
2024/01/10 03:35:14;;;;;;;;;;;;;;;0.20;63.23;100175.39;109373;1254;60112;-61
2024/01/10 03:37:42;;;;;;;;;;;;;;;0.09;63.98;100166.78;109351;1254;59916;-60
2024/01/10 03:40:09;;;;;;;;;;;;;;;-0.08;64.63;100159.11;109312;1254;75544;-61
2024/01/10 03:42:37;;;;;;;;;;;;;;;0.08;64.50;100156.38;109244;1254;68574;-61
2024/01/10 03:45:05;;;;;;;;;;;;;;;0.13;64.37;100148.59;109344;1253;70286;-61
2024/01/10 03:47:32;;;;;;;;;;;;;;;0.12;64.50;100147.96;108435;1253;1002280;-62
2024/01/10 03:50:00;;;;;;;;;;;;;;;0.14;64.54;100151.13;109598;1253;59729;-62
2024/01/10 03:52:28;;;;;;;;;;;;;;;0.15;64.43;100148.55;109643;1251;74203;-61
2024/01/10 03:54:55;;;;;;;;;;;;;;;0.26;63.75;100151.66;109623;1253;69107;-63
2024/01/10 03:57:23;;;;;;;;;;;;;;;-0.01;65.14;100148.14;109653;1251;72726;-62
2024/01/10 03:59:50;;;;;;;;;;;;;;;-0.03;65.12;100138.05;109589;1253;61762;-62
2024/01/10 04:02:18;;;;;;;;;;;;;;;-0.04;65.33;100147.75;109564;1252;59822;-62
2024/01/10 04:04:45;;;;;;;;;;;;;;;0.30;63.95;100150.50;109624;1252;75432;-60
2024/01/10 04:07:12;;;;;;;;;;;;;;;0.16;64.29;100142.45;109607;1251;68801;-62
2024/01/10 04:09:40;;;;;;;;;;;;;;;0.20;64.21;100146.08;109512;1253;72851;-61
2024/01/10 04:12:07;;;;;;;;;;;;;;;0.17;64.45;100150.80;109553;1252;60484;-62
2024/01/10 04:14:35;;;;;;;;;;;;;;;0.46;63.28;100150.67;109358;1255;59872;-61
2024/01/10 04:17:04;;;;;;;;;;;;;;;0.22;63.71;100149.47;109194;1255;74301;-61
2024/01/10 04:19:32;;;;;;;;;;;;;;;0.20;64.26;100158.92;109295;1255;68655;-61
2024/01/10 04:22:00;;;;;;;;;;;;;;;-0.03;65.26;100145.05;109321;1255;71432;-62
2024/01/10 04:24:27;;;;;;;;;;;;;;;0.23;64.28;100151.82;109152;1256;60923;-61
2024/01/10 04:26:55;;;;;;;;;;;;;;;0.48;63.26;100152.75;109277;1256;59884;-61
2024/01/10 04:29:22;;;;;;;;;;;;;;;0.23;64.07;100158.66;109201;1255;74242;-61
2024/01/10 04:31:50;;;;;;;;;;;;;;;0.59;62.52;100151.36;109258;1255;68840;-61
2024/01/10 04:34:18;;;;;;;;;;;;;;;0.31;63.31;100143.39;109190;1255;71539;-61
2024/01/10 04:36:45;;;;;;;;;;;;;;;0.29;63.33;100139.95;109271;1255;60481;-63
2024/01/10 04:39:12;;;;;;;;;;;;;;;0.23;63.42;100141.30;109192;1254;59817;-61
2024/01/10 04:41:40;;;;;;;;;;;;;;;-0.00;64.22;100135.64;109321;1255;75687;-62
2024/01/10 04:44:07;;;;;;;;;;;;;;;-0.26;65.30;100134.11;109209;1257;69688;-61
2024/01/10 04:46:35;;;;;;;;;;;;;;;0.08;64.40;100123.08;109461;1253;71561;-60
2024/01/10 04:49:02;;;;;;;;;;;;;;;-0.18;65.36;100122.27;109511;1252;59706;-61
2024/01/10 04:51:30;;;;;;;;;;;;;;;-0.01;64.66;100124.46;109601;1252;60051;-61
2024/01/10 04:53:57;;;;;;;;;;;;;;;0.01;64.56;100132.17;109594;1252;73842;-60
2024/01/10 04:56:25;;;;;;;;;;;;;;;0.33;63.19;100130.28;109500;1252;69078;-64
2024/01/10 04:58:52;;;;;;;;;;;;;;;0.04;64.09;100122.82;109553;1252;71808;-61
2024/01/10 05:01:20;;;;;;;;;;;;;;;0.14;64.06;100131.88;109469;1253;61144;-61
2024/01/10 05:03:47;;;;;;;;;;;;;;;0.27;63.42;100128.14;109521;1252;60164;-60
2024/01/10 05:06:15;;;;;;;;;;;;;;;0.31;63.17;100129.48;109499;1252;75609;-61
2024/01/10 05:08:42;;;;;;;;;;;;;;;0.21;63.58;100124.98;109192;1252;68062;-60
2024/01/10 05:11:10;;;;;;;;;;;;;;;-0.19;65.25;100119.53;109349;1252;72696;-62
2024/01/10 05:13:39;;;;;;;;;;;;;;;0.14;64.46;100118.13;109535;1252;61777;-63
2024/01/10 05:16:06;;;;;;;;;;;;;;;0.10;64.16;100117.55;109528;1252;60083;-61
2024/01/10 05:18:34;;;;;;;;;;;;;;;0.11;64.13;100126.32;109582;1252;75510;-63
2024/01/10 05:21:01;;;;;;;;;;;;;;;0.13;64.23;100134.90;109540;1252;68817;-61
2024/01/10 05:23:28;;;;;;;;;;;;;;;0.41;63.27;100134.50;109465;1252;72679;-61
2024/01/10 05:25:56;;;;;;;;;;;;;;;0.54;62.62;100139.55;109303;1252;314211;-60
2024/01/10 05:28:23;;;;;;;;;;;;;;;0.42;62.90;100141.62;109554;1252;59776;-60
2024/01/10 05:30:51;;;;;;;;;;;;;;;0.12;64.28;100140.41;109613;1252;75655;-60
2024/01/10 05:33:19;;;;;;;;;;;;;;;0.42;63.25;100142.35;109533;1253;68818;-60
2024/01/10 05:35:47;;;;;;;;;;;;;;;0.40;63.29;100128.46;108725;1251;1002328;-61
2024/01/10 05:38:14;;;;;;;;;;;;;;;0.53;63.13;100141.10;109541;1252;60886;-60
2024/01/10 05:40:43;;;;;;;;;;;;;;;0.55;62.52;100140.30;109579;1252;59988;-61
2024/01/10 05:43:10;;;;;;;;;;;;;;;0.43;63.06;100146.23;109564;1252;74228;-60
2024/01/10 05:45:38;;;;;;;;;;;;;;;0.65;62.49;100140.44;109570;1252;68924;-61
2024/01/10 05:48:06;;;;;;;;;;;;;;;0.46;62.83;100147.27;109537;1252;72736;-60
2024/01/10 05:50:33;;;;;;;;;;;;;;;0.33;63.83;100152.49;109570;1254;60456;-61
2024/01/10 05:53:02;;;;;;;;;;;;;;;0.56;62.99;100155.06;109407;1254;59886;-61
2024/01/10 05:55:29;;;;;;;;;;;;;;;0.52;63.08;100153.35;109293;1254;75354;-62
2024/01/10 05:57:57;;;;;;;;;;;;;;;0.59;62.86;100163.77;109276;1254;68957;-61
2024/01/10 06:00:24;;;;;;;;;;;;;;;0.74;62.30;100161.83;109246;1254;72751;-61
2024/01/10 06:02:52;;;;;;;;;;;;;;;0.70;62.35;100159.23;109259;1254;61794;-61
2024/01/10 06:05:19;;;;;;;;;;;;;;;0.83;61.93;100164.27;109261;1254;59734;-64
2024/01/10 06:07:47;;;;;;;;;;;;;;;0.96;61.27;100168.38;109063;1254;75509;-63
2024/01/10 06:10:14;;;;;;;;;;;;;;;0.74;61.91;100166.52;109154;1256;68897;-62
2024/01/10 06:12:42;;;;;;;;;;;;;;;1.04;61.24;100166.23;109118;1256;72760;-61
2024/01/10 06:15:09;;;;;;;;;;;;;;;0.89;61.34;100163.73;109079;1257;60454;-64
2024/01/10 06:17:37;;;;;;;;;;;;;;;0.97;61.37;100168.34;109073;1256;59962;-63
2024/01/10 06:20:06;;;;;;;;;;;;;;;0.83;61.67;100170.24;109166;1256;74279;-60
2024/01/10 06:22:34;;;;;;;;;;;;;;;0.67;62.42;100168.17;109094;1256;68887;-62
2024/01/10 06:25:02;;;;;;;;;;;;;;;0.93;61.62;100171.40;109274;1253;72174;-62
2024/01/10 06:27:30;;;;;;;;;;;;;;;1.06;61.08;100172.56;109516;1253;61819;-63
2024/01/10 06:29:57;;;;;;;;;;;;;;;1.09;60.95;100173.45;109378;1253;59759;-61
2024/01/10 06:32:25;;;;;;;;;;;;;;;1.06;60.97;100176.30;109225;1253;75498;-64
2024/01/10 06:34:53;;;;;;;;;;;;;;;1.01;61.33;100172.10;109502;1252;69744;-60
2024/01/10 06:37:21;;;;;;;;;;;;;;;0.93;61.70;100178.44;109521;1253;70553;-61
2024/01/10 06:39:48;;;;;;;;;;;;;;;1.23;60.99;100180.06;109467;1254;61732;-64
2024/01/10 06:42:16;;;;;;;;;;;;;;;1.29;60.50;100181.71;109486;1257;59656;-60
2024/01/10 06:44:43;;;;;;;;;;;;;;;1.15;61.02;100177.29;109512;1253;75522;-63
2024/01/10 06:47:10;;;;;;;;;;;;;;;1.21;61.04;100181.08;109512;1253;67715;-60
2024/01/10 06:49:38;;;;;;;;;;;;;;;1.31;60.68;100187.32;109497;1253;72864;-62
2024/01/10 06:52:07;;;;;;;;;;;;;;;1.20;61.25;100181.55;109481;1253;60493;-63
2024/01/10 06:54:35;;;;;;;;;;;;;;;1.07;61.75;100181.98;109495;1252;60045;-66
2024/01/10 06:57:02;;;;;;;;;;;;;;;0.99;62.59;100187.23;109520;1253;73645;-62
2024/01/10 06:59:30;;;;;;;;;;;;;;;0.99;62.38;100188.34;109349;1253;67405;-62
2024/01/10 07:01:58;;;;;;;;;;;;;;;1.26;61.59;100190.73;109502;1253;72788;-61
2024/01/10 07:04:26;;;;;;;;;;;;;;;1.31;61.34;100192.96;109505;1253;60445;-60
2024/01/10 07:06:53;;;;;;;;;;;;;;;1.10;61.87;100194.32;109517;1252;59871;-60
2024/01/10 07:09:21;;;;;;;;;;;;;;;1.18;61.88;100198.33;109445;1252;75527;-63
2024/01/10 07:11:48;;;;;;;;;;;;;;;1.11;61.94;100196.66;109592;1253;67625;-60
2024/01/10 07:14:16;;;;;;;;;;;;;;;1.09;62.04;100201.49;109580;1253;72776;-63
2024/01/10 07:16:45;;;;;;;;;;;;;;;1.30;61.46;100201.67;109570;1253;60466;-60
2024/01/10 07:19:14;;;;;;;;;;;;;;;1.49;60.84;100203.77;109533;1253;59883;-60
2024/01/10 07:21:41;;;;;;;;;;;;;;;1.45;60.74;100200.16;109571;1253;75535;-60
2024/01/10 07:24:12;;;;;;;;;;;;;;;1.24;61.60;100202.94;109515;1252;68613;-60
2024/01/10 07:26:40;;;;;;;;;;;;;;;1.25;61.97;100201.77;109223;1252;71587;-60
2024/01/10 07:29:08;;;;;;;;;;;;;;;1.24;61.79;100202.37;109503;1257;61787;-61
2024/01/10 07:31:36;;;;;;;;;;;;;;;1.46;61.24;100204.62;109567;1252;59924;-60
2024/01/10 07:34:07;;;;;;;;;;;;;;;1.55;60.87;100212.45;108772;1252;1002954;-61
2024/01/10 07:36:42;;;;;;;;;;;;;;;1.56;60.62;100210.39;109565;1252;68580;-62
2024/01/10 07:39:10;;;;;;;;;;;;;;;1.43;61.22;100208.69;109536;1252;71458;-61
2024/01/10 07:41:37;;;;;;;;;;;;;;;1.37;61.31;100207.38;109584;1253;61740;-61
2024/01/10 07:44:06;;;;;;;;;;;;;;;1.47;61.30;100204.83;109540;1252;59727;-60
2024/01/10 07:46:34;;;;;;;;;;;;;;;1.52;61.11;100204.77;109588;1252;75526;-63
2024/01/10 07:49:01;;;;;;;;;;;;;;;1.55;60.92;100207.69;109616;1254;67644;-60
2024/01/10 07:51:29;;;;;;;;;;;;;;;1.81;60.47;100212.17;109528;1253;71763;-59
2024/01/10 07:53:59;;;;;;;;;;;;;;;1.30;61.66;100208.93;109562;1252;60427;-60
2024/01/10 07:56:26;;;;;;;;;;;;;;;1.24;62.72;100212.79;109425;1252;59824;-59
2024/01/10 07:58:55;;;;;;;;;;;;;;;1.48;61.67;100212.14;109573;1256;74262;-60
2024/01/10 08:01:23;;;;;;;;;;;;;;;1.55;61.18;100214.74;109594;1252;67571;-62
2024/01/10 08:03:50;;;;;;;;;;;;;;;1.36;61.79;100211.71;109580;1252;72745;-64
2024/01/10 08:06:18;;;;;;;;;;;;;;;1.52;61.51;100215.05;109542;1252;60444;-63
2024/01/10 08:08:56;;;;;;;;;;;;;;;1.25;62.30;100208.30;109523;1252;59928;-61
2024/01/10 08:11:24;;;;;;;;;;;;;;;1.25;62.60;100210.60;109596;1252;73964;-61
2024/01/10 08:13:52;;;;;;;;;;;;;;;1.15;62.98;100210.51;109261;1252;68700;-61
2024/01/10 08:16:19;;;;;;;;;;;;;;;1.35;62.50;100214.70;109617;1253;73531;-61
2024/01/10 08:18:47;;;;;;;;;;;;;;;1.46;61.80;100209.77;109525;1254;60855;-61
2024/01/10 08:21:14;;;;;;;;;;;;;;;1.67;61.52;100211.91;109318;1252;59841;-63
2024/01/10 08:23:42;;;;;;;;;;;;;;;1.46;61.88;100215.56;109275;1253;74277;-62
2024/01/10 08:26:09;;;;;;;;;;;;;;;1.24;62.67;100213.52;109600;1252;68777;-60
2024/01/10 08:28:36;;;;;;;;;;;;;;;0.88;64.51;100214.81;109584;1253;72743;-62
2024/01/10 08:31:04;;;;;;;;;;;;;;;0.88;64.75;100217.39;109578;1252;60974;-62
2024/01/10 08:33:32;;;;;;;;;;;;;;;1.17;63.73;100216.41;109607;1251;60094;-61
2024/01/10 08:36:00;;;;;;;;;;;;;;;1.50;62.83;100220.35;109637;1252;75806;-60
2024/01/10 08:38:27;;;;;;;;;;;;;;;1.34;62.95;100215.21;109620;1252;68170;-61
2024/01/10 08:40:55;;;;;;;;;;;;;;;1.50;62.41;100216.98;109428;1254;72705;-61
2024/01/10 08:43:23;;;;;;;;;;;;;;;1.26;63.53;100214.47;109263;1255;60472;-63
2024/01/10 08:45:50;;;;;;;;;;;;;;;1.51;62.65;100209.50;109274;1254;59871;-60
2024/01/10 08:48:17;;;;;;;;;;;;;;;1.21;63.88;100200.29;109437;1254;75678;-62
2024/01/10 08:50:45;;;;;;;;;;;;;;;1.24;64.13;100201.84;109287;1254;67323;-62
2024/01/10 08:53:13;;;;;;;;;;;;;;;1.35;63.74;100196.24;109275;1254;72735;-64
2024/01/10 08:55:41;;;;;;;;;;;;;;;1.50;63.33;100207.20;109095;1254;61788;-61
2024/01/10 08:58:09;;;;;;;;;;;;;;;1.61;62.69;100204.65;109253;1254;59760;-61
2024/01/10 09:00:36;;;;;;;;;;;;;;;1.59;62.93;100205.64;109312;1255;75548;-62
2024/01/10 09:03:04;;;;;;;;;;;;;;;1.64;62.74;100198.88;109268;1254;68532;-61
2024/01/10 09:05:32;;;;;;;;;;;;;;;1.91;61.94;100197.09;109198;1254;70613;-61
2024/01/10 09:08:00;;;;;;;;;;;;;;;1.60;62.46;100182.17;109284;1254;60547;-62
2024/01/10 09:10:27;;;;;;;;;;;;;;;1.46;63.55;100185.89;109310;1254;59832;-61
2024/01/10 09:12:58;;;;;;;;;;;;;;;1.50;63.50;100182.48;109276;1254;75539;-60
2024/01/10 09:15:25;;;;;;;;;;;;;;;1.85;62.50;100187.84;109296;1254;68941;-60
2024/01/10 09:17:53;;;;;;;;;;;;;;;1.89;61.87;100186.59;107749;1252;1002822;-60
2024/01/10 09:20:21;;;;;;;;;;;;;;;1.93;61.72;100188.92;109567;1252;60502;-61
2024/01/10 09:22:48;;;;;;;;;;;;;;;1.65;62.61;100193.16;109329;1252;59915;-60
2024/01/10 09:25:17;;;;;;;;;;;;;;;1.51;63.42;100192.43;109631;1253;75530;-60
2024/01/10 09:27:45;;;;;;;;;;;;;;;1.71;62.76;100180.87;109592;1252;67622;-63
2024/01/10 09:30:12;;;;;;;;;;;;;;;1.80;62.85;100182.47;109608;1252;71458;-62
2024/01/10 09:32:40;;;;;;;;;;;;;;;1.89;62.40;100183.54;109572;1252;61757;-62
2024/01/10 09:35:08;;;;;;;;;;;;;;;2.04;61.65;100182.69;109579;1253;60023;-62
2024/01/10 09:37:35;;;;;;;;;;;;;;;2.08;61.53;100187.27;109611;1252;74235;-62
2024/01/10 09:40:03;;;;;;;;;;;;;;;1.75;62.20;100181.29;109580;1252;70516;-61
2024/01/10 09:42:33;;;;;;;;;;;;;;;1.59;62.81;100180.13;109484;1253;72737;-61
2024/01/10 09:45:03;;;;;;;;;;;;;;;1.86;62.03;100183.33;109573;1256;61743;-63
2024/01/10 09:47:31;;;;;;;;;;;;;;;1.99;61.42;100183.19;109497;1252;59863;-61
2024/01/10 09:50:01;;;;;;;;;;;;;;;2.01;61.62;100180.66;109604;1252;75498;-61
2024/01/10 09:52:29;;;;;;;;;;;;;;;2.13;61.10;100180.13;109628;1252;67559;-61
2024/01/10 09:54:57;;;;;;;;;;;;;;;2.14;61.09;100182.10;109319;1252;72710;-62
2024/01/10 09:57:25;;;;;;;;;;;;;;;2.04;61.13;100173.61;109600;1253;61751;-62
2024/01/10 09:59:54;;;;;;;;;;;;;;;1.87;61.78;100166.45;109604;1252;59886;-60
2024/01/10 10:02:22;;;;;;;;;;;;;;;2.35;60.75;100163.37;109630;1252;74719;-60
2024/01/10 10:04:59;;;;;;;;;;;;;;;2.09;61.33;100159.95;109636;1253;68945;-61
2024/01/10 10:07:26;;;;;;;;;;;;;;;2.56;60.24;100160.08;109622;1251;71855;-59
2024/01/10 10:09:56;;;;;;;;;;;;;;;2.60;59.44;100157.67;109136;1253;60614;-60
2024/01/10 10:12:47;;;;;;;;;;;;;;;2.52;59.31;100154.73;109499;1253;59922;-60
2024/01/10 10:15:26;;;;;;;;;;;;;;;2.16;60.69;100145.36;109046;1258;75497;-60
2024/01/10 10:17:54;;;;;;;;;;;;;;;2.20;60.70;100144.19;109022;1258;66653;-61
2024/01/10 10:20:23;;;;;;;;;;;;;;;2.31;60.06;100146.40;109036;1257;71812;-60
2024/01/10 10:23:00;;;;;;;;;;;;;;;2.19;60.46;100145.73;109052;1258;61901;-60
2024/01/10 10:25:34;;;;;;;;;;;;;;;2.15;60.60;100140.11;109020;1259;59829;-60
2024/01/10 10:28:02;;;;;;;;;;;;;;;2.33;60.44;100142.11;109100;1259;75709;-61
2024/01/10 10:30:30;;;;;;;;;;;;;;;2.34;59.95;100141.45;109066;1257;68851;-63
2024/01/10 10:32:58;;;;;;;;;;;;;;;2.26;60.26;100144.85;109044;1257;72745;-63
2024/01/10 10:35:25;;;;;;;;;;;;;;;2.64;59.40;100149.38;109030;1258;60485;-64
2024/01/10 10:38:08;;;;;;;;;;;;;;;2.56;59.15;100144.70;109045;1259;59840;-63
2024/01/10 10:40:36;;;;;;;;;;;;;;;2.51;59.30;100149.95;108993;1257;74625;-64
2024/01/10 10:43:03;;;;;;;;;;;;;;;2.45;59.72;100150.56;108881;1257;67582;-61
2024/01/10 10:45:31;;;;;;;;;;;;;;;2.84;59.02;100150.47;109041;1259;71453;-60
2024/01/10 10:47:59;;;;;;;;;;;;;;;2.47;59.52;100145.17;108933;1258;61764;-64
2024/01/10 10:50:28;;;;;;;;;;;;;;;2.51;59.50;100145.23;108960;1259;60123;-62
2024/01/10 10:52:58;;;;;;;;;;;;;;;2.58;59.57;100147.58;109255;1254;75562;-61
2024/01/10 10:55:26;;;;;;;;;;;;;;;2.75;58.99;100148.48;109246;1256;67632;-63
2024/01/10 10:57:53;;;;;;;;;;;;;;;2.73;58.95;100148.45;109232;1254;72747;-59
2024/01/10 11:00:31;;;;;;;;;;;;;;;2.73;59.04;100145.38;109208;1255;60490;-60
2024/01/10 11:02:58;;;;;;;;;;;;;;;2.61;59.22;100142.36;109248;1253;59903;-59
2024/01/10 11:05:26;;;;;;;;;;;;;;;2.43;60.20;100141.98;109271;1254;75521;-61
2024/01/10 11:07:54;;;;;;;;;;;;;;;2.50;60.21;100142.08;109247;1254;68576;-62
2024/01/10 11:10:25;;;;;;;;;;;;;;;2.48;59.94;100136.51;109369;1253;71592;-63
2024/01/10 11:13:10;;;;;;;;;;;;;;;2.38;60.54;100136.11;109242;1253;59713;-60
2024/01/10 11:15:38;;;;;;;;;;;;;;;2.60;59.89;100140.42;109508;1253;59905;-60
2024/01/10 11:18:06;;;;;;;;;;;;;;;2.50;60.09;100141.28;109521;1253;75623;-60
2024/01/10 11:21:06;;;;;;;;;;;;;;;2.25;61.09;100143.48;109484;1253;67627;-60
2024/01/10 11:23:33;;;;;;;;;;;;;;;2.36;60.60;100148.38;109018;1259;72741;-59
2024/01/10 11:26:02;;;;;;;;;;;;;;;2.62;59.93;100148.97;108995;1259;60815;-60
2024/01/10 11:28:30;;;;;;;;;;;;;;;2.59;59.97;100147.39;109035;1259;60305;-60
2024/01/10 11:30:58;;;;;;;;;;;;;;;2.54;60.22;100147.45;109016;1259;75515;-64
2024/01/10 11:33:30;;;;;;;;;;;;;;;2.54;60.04;100148.52;109028;1259;67645;-60
2024/01/10 11:36:11;;;;;;;;;;;;;;;2.49;60.37;100149.36;108954;1259;72756;-58
2024/01/10 11:38:53;;;;;;;;;;;;;;;2.62;59.99;100160.23;108977;1259;60633;-61
2024/01/10 11:41:22;;;;;;;;;;;;;;;2.70;59.91;100164.52;108995;1259;59934;-60
2024/01/10 11:44:08;;;;;;;;;;;;;;;2.47;60.49;100162.86;109010;1259;73827;-62
2024/01/10 11:46:39;;;;;;;;;;;;;;;2.45;60.94;100166.96;109006;1263;69030;-61
2024/01/10 11:49:11;;;;;;;;;;;;;;;2.44;60.80;100167.39;108887;1260;72772;-60
2024/01/10 11:51:40;;;;;;;;;;;;;;;2.77;59.90;100171.73;109025;1262;61714;-60
2024/01/10 11:54:10;;;;;;;;;;;;;;;2.78;59.72;100166.96;108114;1265;1002993;-59
2024/01/10 11:56:38;;;;;;;;;;;;;;;2.57;60.17;100162.16;108900;1261;75542;-60
2024/01/10 11:59:08;;;;;;;;;;;;;;;2.78;59.64;100159.68;108956;1257;67664;-61
2024/01/10 12:01:39;;;;;;;;;;;;;;;2.79;59.62;100161.02;109097;1257;70991;-59
2024/01/10 12:04:07;;;;;;;;;;;;;;;2.77;59.57;100158.59;109041;1261;60457;-59
2024/01/10 12:06:46;;;;;;;;;;;;;;;2.69;59.90;100160.46;109111;1257;59889;-59
2024/01/10 12:09:16;;;;;;;;;;;;;;;2.56;60.37;100158.54;109087;1260;74252;-59
2024/01/10 12:11:43;;;;;;;;;;;;;;;2.61;60.63;100159.34;109084;1257;67662;-59
2024/01/10 12:14:11;;;;;;;;;;;;;;;2.64;60.40;100156.83;109105;1257;71447;-59
2024/01/10 12:16:38;;;;;;;;;;;;;;;2.62;60.45;100155.30;109098;1257;60464;-60
2024/01/10 12:19:06;;;;;;;;;;;;;;;2.72;60.29;100162.05;109057;1258;59868;-60
2024/01/10 12:21:34;;;;;;;;;;;;;;;2.77;60.07;100159.29;108939;1257;74271;-61
2024/01/10 12:24:05;;;;;;;;;;;;;;;2.76;59.89;100157.92;108984;1257;67905;-63
2024/01/10 12:26:33;;;;;;;;;;;;;;;2.81;59.82;100150.68;109040;1261;72770;-63
2024/01/10 12:29:02;;;;;;;;;;;;;;;3.10;59.25;100153.50;108927;1257;60493;-60
2024/01/10 12:31:30;;;;;;;;;;;;;;;3.28;58.49;100159.48;109094;1254;60337;-60
2024/01/10 12:33:57;;;;;;;;;;;;;;;2.97;58.92;100159.23;109327;1254;75545;-60
2024/01/10 12:36:25;;;;;;;;;;;;;;;2.82;59.33;100153.47;109481;1254;68847;-59
2024/01/10 12:38:53;;;;;;;;;;;;;;;2.75;59.98;100151.42;109162;1255;72778;-59